Time;durP1;ratioP1;P1;durP2;ratioP2;P2;SDS_P1;SDS_P2;PMS_P1;PMS_P2;Temp;Humidity;BMP_temperature;BMP_pressure;BME280_temperature;BME280_humidity;BME280_pressure;Samples;Min_cycle;Max_cycle;Signal;HPM_P1;HPM_P2
2021/10/27 00:05:30;;;;;;;54.67;28.85;;;;;;;5.90;100.00;99916.98;4370942;80;28472;-86
2021/10/27 00:11:32;;;;;;;60.92;29.30;;;;;;;5.72;100.00;99926.11;4341237;80;28534;-86
2021/10/27 00:17:33;;;;;;;59.20;30.52;;;;;;;5.76;100.00;99923.11;4366425;80;28579;-85
2021/10/27 00:23:35;;;;;;;60.52;30.17;;;;;;;5.61;100.00;99926.52;4354910;80;28526;-84
2021/10/27 00:29:36;;;;;;;54.70;26.73;;;;;;;5.56;100.00;99912.38;4334680;80;28507;-84
2021/10/27 00:35:37;;;;;;;54.80;26.33;;;;;;;5.37;100.00;99922.19;4341698;80;28469;-85
2021/10/27 00:41:44;;;;;;;51.80;25.62;;;;;;;5.28;100.00;99923.55;4336874;80;28462;-84
2021/10/27 00:47:46;;;;;;;51.25;26.20;;;;;;;5.27;100.00;99927.23;4335248;80;28517;-86
2021/10/27 00:53:48;;;;;;;52.85;27.02;;;;;;;5.30;100.00;99930.03;4330347;80;28466;-85
2021/10/27 00:59:50;;;;;;;56.37;28.57;;;;;;;5.12;100.00;99938.28;4334947;80;28485;-85
2021/10/27 01:05:52;;;;;;;56.80;27.58;;;;;;;5.13;100.00;99935.94;4359398;80;28493;-85
2021/10/27 01:11:54;;;;;;;52.27;26.42;;;;;;;5.01;100.00;99930.99;4346575;80;28521;-86
2021/10/27 01:17:55;;;;;;;48.05;24.45;;;;;;;4.76;100.00;99932.91;4401904;79;28519;-86
2021/10/27 01:23:59;;;;;;;55.10;27.10;;;;;;;4.71;100.00;99929.42;4461428;79;28465;-87
2021/10/27 01:30:01;;;;;;;53.17;26.48;;;;;;;4.65;100.00;99930.13;4382374;79;28641;-85
2021/10/27 01:36:04;;;;;;;57.88;29.52;;;;;;;4.50;100.00;99929.14;4364959;79;28530;-85
2021/10/27 01:42:06;;;;;;;52.20;26.48;;;;;;;4.34;100.00;99932.17;4404163;79;28441;-85
2021/10/27 01:48:10;;;;;;;46.35;24.72;;;;;;;4.32;100.00;99940.80;4426630;78;28477;-86
2021/10/27 01:54:12;;;;;;;50.48;25.62;;;;;;;4.31;100.00;99942.65;4356217;80;28477;-85
2021/10/27 02:00:14;;;;;;;54.48;26.82;;;;;;;4.25;100.00;99945.16;4368010;80;28486;-86
2021/10/27 02:06:17;;;;;;;55.83;27.98;;;;;;;4.31;100.00;99944.47;4387422;79;28444;-86
2021/10/27 02:12:18;;;;;;;56.10;28.95;;;;;;;4.36;100.00;99956.80;4363181;79;28477;-86
2021/10/27 02:18:20;;;;;;;57.62;27.65;;;;;;;4.41;100.00;99962.44;4406049;79;28475;-86
2021/10/27 02:24:23;;;;;;;47.90;24.45;;;;;;;4.36;100.00;99966.11;4407632;79;28465;-85
2021/10/27 02:30:24;;;;;;;45.55;24.63;;;;;;;4.34;100.00;99950.81;4412922;79;28520;-84
2021/10/27 02:36:27;;;;;;;44.40;23.38;;;;;;;4.37;100.00;99960.27;4391614;79;28522;-85
2021/10/27 02:42:28;;;;;;;53.45;27.73;;;;;;;4.27;100.00;99965.30;4389952;81;28493;-85
2021/10/27 02:48:30;;;;;;;52.55;27.37;;;;;;;4.15;100.00;99978.09;4391945;81;28477;-85
2021/10/27 02:54:31;;;;;;;57.05;28.00;;;;;;;4.05;100.00;99976.09;4388795;81;28473;-85
2021/10/27 03:00:32;;;;;;;56.13;26.90;;;;;;;3.94;100.00;99968.44;4416460;80;28521;-86
2021/10/27 03:06:34;;;;;;;46.28;25.17;;;;;;;3.88;100.00;99980.57;4410624;80;28572;-87
2021/10/27 03:12:36;;;;;;;51.35;25.00;;;;;;;3.86;100.00;99980.72;4410328;81;28510;-86
2021/10/27 03:18:37;;;;;;;46.75;25.32;;;;;;;3.79;100.00;99982.36;4390145;80;28464;-86
2021/10/27 03:24:38;;;;;;;54.90;27.10;;;;;;;3.88;100.00;99981.39;4410821;81;28511;-86
2021/10/27 03:30:40;;;;;;;60.35;29.07;;;;;;;3.86;100.00;99997.20;4413567;79;28480;-87
2021/10/27 03:36:42;;;;;;;58.17;29.35;;;;;;;3.86;100.00;100000.67;4414886;80;28485;-86
2021/10/27 03:42:44;;;;;;;56.28;28.40;;;;;;;3.82;100.00;100002.50;4389667;81;28457;-86
2021/10/27 03:48:45;;;;;;;48.10;25.37;;;;;;;3.70;100.00;100014.77;4389385;81;28493;-86
2021/10/27 03:54:47;;;;;;;49.20;24.27;;;;;;;3.63;100.00;100016.41;4410740;81;28451;-86
2021/10/27 04:00:48;;;;;;;49.45;24.52;;;;;;;3.74;100.00;100020.61;4362443;81;28537;-83
2021/10/27 04:06:49;;;;;;;54.53;27.25;;;;;;;3.89;100.00;100018.97;4408565;80;28471;-85
2021/10/27 04:12:51;;;;;;;50.52;26.85;;;;;;;4.16;100.00;100014.36;4390103;81;28537;-86
2021/10/27 04:18:52;;;;;;;50.15;25.00;;;;;;;4.21;100.00;100011.69;4387727;80;28524;-85
2021/10/27 04:24:53;;;;;;;52.35;27.32;;;;;;;4.14;100.00;100023.02;4409808;81;28555;-85
2021/10/27 04:30:55;;;;;;;43.70;24.25;;;;;;;4.12;100.00;100023.69;4388303;81;28465;-84
2021/10/27 04:36:57;;;;;;;47.83;24.30;;;;;;;4.24;100.00;100012.20;4345850;81;28474;-86
2021/10/27 04:42:58;;;;;;;45.43;24.23;;;;;;;4.35;100.00;100022.19;4361272;82;28543;-87
2021/10/27 04:48:59;;;;;;;51.90;26.30;;;;;;;4.49;100.00;100026.02;4291658;82;28466;-86
2021/10/27 04:55:00;;;;;;;56.75;28.47;;;;;;;4.50;100.00;100028.52;4304549;81;28434;-85
2021/10/27 05:01:02;;;;;;;53.20;27.07;;;;;;;4.54;100.00;100031.17;4325177;82;28491;-85
2021/10/27 05:07:05;;;;;;;51.48;26.73;;;;;;;4.64;100.00;100045.67;4370651;80;28464;-85
2021/10/27 05:13:06;;;;;;;46.90;25.02;;;;;;;4.69;100.00;100045.98;4336687;82;28474;-85
2021/10/27 05:19:07;;;;;;;59.67;28.27;;;;;;;4.73;100.00;100051.30;4437742;79;28436;-85
2021/10/27 05:25:09;;;;;;;47.35;22.80;;;;;;;4.88;100.00;100058.63;4374968;81;28525;-84
2021/10/27 05:31:10;;;;;;;49.00;26.25;;;;;;;5.07;100.00;100067.27;4392641;80;28576;-88
2021/10/27 05:37:12;;;;;;;50.33;26.05;;;;;;;5.06;100.00;100066.42;4335830;81;28555;-84
2021/10/27 05:43:14;;;;;;;47.98;24.85;;;;;;;5.35;100.00;100069.02;4310509;81;28436;-86
2021/10/27 05:49:24;;;;;;;43.52;23.10;;;;;;;5.37;100.00;100083.53;4310665;81;28476;-85
2021/10/27 05:55:28;;;;;;;38.23;19.95;;;;;;;5.54;100.00;100085.64;4341727;81;28548;-83
2021/10/27 06:01:25;;;;;;;41.18;21.80;;;;;;;5.72;100.00;100086.21;4316194;81;28488;-82
2021/10/27 06:07:27;;;;;;;32.65;17.27;;;;;;;5.83;100.00;100095.69;4373518;80;28438;-83
2021/10/27 06:13:34;;;;;;;41.23;21.57;;;;;;;6.08;100.00;100089.42;4364691;81;28544;-80
2021/10/27 06:19:31;;;;;;;44.83;22.17;;;;;;;6.25;100.00;100092.83;4331065;80;28468;-84
2021/10/27 06:25:33;;;;;;;42.45;22.52;;;;;;;6.43;100.00;100095.72;4321190;81;28509;-81
2021/10/27 06:31:45;;;;;;;41.18;21.45;;;;;;;6.44;100.00;100096.05;4352806;80;28594;-80
2021/10/27 06:50:24;;;;;;;43.00;20.60;;;;;;;6.36;100.00;100110.30;4378592;81;28547;-78
2021/10/27 06:56:25;;;;;;;44.15;21.02;;;;;;;6.39;100.00;100107.27;4411253;80;28508;-78
2021/10/27 07:15:08;;;;;;;29.98;15.40;;;;;;;6.82;100.00;100105.42;4381983;81;28521;-83
2021/10/27 07:21:06;;;;;;;29.45;14.90;;;;;;;7.03;100.00;100108.76;4400323;79;28508;-82
2021/10/27 07:27:10;;;;;;;27.22;15.58;;;;;;;7.33;100.00;100105.28;4388368;78;28636;-82
2021/10/27 07:33:12;;;;;;;28.15;15.18;;;;;;;7.60;100.00;100101.66;4412397;79;28533;-83
2021/10/27 07:45:34;;;;;;;29.98;15.18;;;;;;;7.91;100.00;100105.97;4443059;78;28514;-80
2021/10/27 07:51:36;;;;;;;25.62;12.68;;;;;;;8.06;100.00;100110.77;4403408;79;28469;-81
2021/10/27 07:57:37;;;;;;;23.70;12.13;;;;;;;8.34;100.00;100103.88;4377920;78;28436;-82
2021/10/27 08:03:38;;;;;;;23.35;12.73;;;;;;;8.63;100.00;100106.13;4392312;78;28467;-91
2021/10/27 08:09:40;;;;;;;23.12;12.98;;;;;;;8.86;100.00;100108.61;4403274;78;28428;-82
2021/10/27 08:15:42;;;;;;;25.12;13.22;;;;;;;8.95;100.00;100107.14;4376030;79;28457;-84
2021/10/27 08:21:44;;;;;;;22.10;12.58;;;;;;;9.13;100.00;100104.81;4376788;79;28500;-80
2021/10/27 08:27:46;;;;;;;22.17;11.50;;;;;;;9.28;100.00;100105.21;4382947;79;28473;-81
2021/10/27 08:39:50;;;;;;;19.25;9.95;;;;;;;9.75;100.00;100110.34;4362451;80;28476;-77
2021/10/27 08:45:53;;;;;;;16.40;9.35;;;;;;;9.99;100.00;100108.16;4345127;80;28510;-81
2021/10/27 08:52:00;;;;;;;16.12;9.75;;;;;;;10.16;100.00;100113.20;4346856;80;28587;-79
2021/10/27 08:58:03;;;;;;;19.57;10.58;;;;;;;10.35;100.00;100109.40;4348913;80;28509;-78
2021/10/27 09:04:17;;;;;;;16.27;9.65;;;;;;;10.53;100.00;100106.99;4348389;80;28626;-78
2021/10/27 09:17:02;;;;;;;18.12;10.15;;;;;;;10.74;100.00;100093.89;4352144;80;28484;-77
2021/10/27 09:36:11;;;;;;;21.70;12.33;;;;;;;11.37;100.00;100099.02;4412209;78;28517;-77
2021/10/27 10:07:29;;;;;;;12.47;7.42;;;;;;;12.10;100.00;100072.88;4407216;79;28588;-76
2021/10/27 10:13:35;;;;;;;12.58;7.37;;;;;;;12.33;100.00;100073.67;4404422;79;28498;-77
2021/10/27 10:19:38;;;;;;;12.98;6.83;;;;;;;12.60;100.00;100071.31;4395163;79;29559;-81
2021/10/27 10:25:54;;;;;;;37.58;9.45;;;;;;;12.79;100.00;100066.80;4403426;79;28475;-82
2021/10/27 10:31:55;;;;;;;14.60;7.20;;;;;;;12.99;100.00;100070.69;4438884;78;28543;-81
2021/10/27 10:57:06;;;;;;;;;;;;;;;13.52;94.96;100054.47;4347626;80;28539;-80
2021/10/27 11:03:32;;;;;;;15.18;7.03;;;;;;;13.65;91.78;100049.44;4341277;80;20148;-81
2021/10/27 11:41:34;;;;;;;7.75;4.25;;;;;;;14.32;88.13;100013.91;4338521;80;28539;-81
2021/10/27 11:47:44;;;;;;;9.48;4.67;;;;;;;14.38;86.72;100001.33;4324798;80;28450;-80
2021/10/27 11:53:46;;;;;;;9.70;4.62;;;;;;;14.42;82.68;100007.94;4315111;81;28537;-80
2021/10/27 11:59:49;;;;;;;7.33;4.15;;;;;;;14.54;81.55;100001.72;4340237;80;28577;-79
2021/10/27 12:18:14;;;;;;;9.10;5.08;;;;;;;14.60;75.63;99984.53;4359801;81;28511;-80
2021/10/27 12:24:23;;;;;;;19.23;7.67;;;;;;;14.57;77.42;99980.95;4382865;80;28491;-81
2021/10/27 12:30:24;;;;;;;14.00;6.60;;;;;;;14.71;80.08;99976.94;4355684;80;28505;-80
2021/10/27 12:36:29;;;;;;;9.85;6.28;;;;;;;14.54;78.17;99983.58;4382540;80;28478;-80
2021/10/27 12:42:30;;;;;;;14.55;7.25;;;;;;;14.56;77.08;99976.59;4417679;80;28465;-80
2021/10/27 12:48:38;;;;;;;13.60;7.70;;;;;;;14.58;79.42;99973.12;4350272;80;28440;-80
2021/10/27 12:54:39;;;;;;;12.40;7.25;;;;;;;14.38;80.70;99979.69;4344263;81;28529;-80
2021/10/27 13:01:03;;;;;;;13.48;7.92;;;;;;;14.32;80.93;99977.39;4378229;81;28480;-79
2021/10/27 13:07:03;;;;;;;12.58;7.78;;;;;;;14.32;81.37;99980.09;4383039;81;28521;-80
2021/10/27 13:13:17;;;;;;;13.80;8.03;;;;;;;14.36;79.73;99980.45;4361199;80;28469;-80
2021/10/27 13:31:40;;;;;;;12.73;7.62;;;;;;;14.39;80.16;99985.39;4349440;81;20233;-78
2021/10/27 13:37:41;;;;;;;13.43;6.55;;;;;;;14.38;81.29;99994.56;4382415;80;28540;-79
2021/10/27 13:57:44;;;;;;;13.03;7.90;;;;;;;14.29;81.09;99990.55;4341390;80;28503;-81
2021/10/27 14:08:51;;;;;;;13.75;7.95;;;;;;;14.31;82.45;99985.72;4345724;80;28456;-80
2021/10/27 15:42:11;;;;;;;10.05;3.55;;;;;;;11.66;100.00;99979.17;4403268;79;28453;-84
2021/10/27 15:54:20;;;;;;;4.90;3.37;;;;;;;11.25;100.00;99983.91;4396192;79;28428;-83
2021/10/27 16:00:24;;;;;;;9.20;4.00;;;;;;;11.05;100.00;99989.88;4411543;79;28473;-82
2021/10/27 16:06:27;;;;;;;11.55;5.80;;;;;;;10.94;100.00;99988.64;4423374;79;28485;-81
2021/10/27 16:12:30;;;;;;;9.68;4.75;;;;;;;10.87;100.00;99993.50;4417044;79;28494;-81
2021/10/27 16:18:33;;;;;;;11.70;4.67;;;;;;;10.73;100.00;99990.03;4408950;79;28856;-79
2021/10/27 16:24:34;;;;;;;12.10;4.87;;;;;;;10.52;100.00;99993.75;4411508;79;28522;-77
2021/10/27 16:30:37;;;;;;;13.18;4.90;;;;;;;10.44;100.00;100002.86;4388932;79;28520;-77
2021/10/27 16:36:38;;;;;;;12.98;5.50;;;;;;;10.37;100.00;100007.36;4407152;79;28542;-77
2021/10/27 16:42:40;;;;;;;11.35;5.05;;;;;;;10.30;100.00;100015.43;4430195;79;28519;-80
2021/10/27 16:48:41;;;;;;;10.72;4.92;;;;;;;10.07;100.00;100026.55;4434289;80;28500;-82
2021/10/27 16:54:44;;;;;;;10.40;5.03;;;;;;;9.81;100.00;100015.22;4409200;78;28479;-82
2021/10/27 17:00:46;;;;;;;14.35;5.78;;;;;;;9.66;100.00;100024.27;4408339;79;28565;-81
2021/10/27 17:06:49;;;;;;;15.05;6.05;;;;;;;9.66;100.00;100022.92;4404467;78;28516;-82
2021/10/27 17:12:51;;;;;;;13.22;5.05;;;;;;;9.48;100.00;100026.97;4433972;78;28437;-80
2021/10/27 17:18:52;;;;;;;16.55;6.25;;;;;;;9.17;100.00;100037.65;4444286;79;28532;-81
2021/10/27 17:24:55;;;;;;;17.95;6.90;;;;;;;9.08;100.00;100036.14;4408053;78;28540;-80
2021/10/27 17:30:58;;;;;;;16.65;7.33;;;;;;;9.06;100.00;100044.41;4418988;78;28516;-83
2021/10/27 17:37:00;;;;;;;17.00;5.90;;;;;;;9.05;100.00;100031.19;4438652;78;28515;-83
2021/10/27 17:43:03;;;;;;;12.98;6.08;;;;;;;8.95;100.00;100017.29;4431663;78;28465;-81
2021/10/27 17:49:07;;;;;;;15.68;7.35;;;;;;;8.75;100.00;100027.36;4419294;78;28448;-79
2021/10/27 18:01:31;;;;;;;16.95;7.67;;;;;;;8.55;100.00;100045.45;4481344;78;28484;-81
2021/10/27 18:07:33;;;;;;;22.48;9.18;;;;;;;8.36;100.00;100037.00;4411516;78;28531;-82
2021/10/27 18:13:39;;;;;;;16.97;7.78;;;;;;;8.22;100.00;100029.34;4435416;79;28492;-80
2021/10/27 18:19:49;;;;;;;13.90;6.55;;;;;;;8.00;100.00;100029.02;4413209;78;28484;-81
2021/10/27 18:38:48;;;;;;;30.12;14.60;;;;;;;7.90;100.00;100036.02;4427030;78;28514;-82
2021/10/27 18:44:44;;;;;;;28.12;14.20;;;;;;;8.02;100.00;100039.02;4436753;78;28476;-82
2021/10/27 18:50:53;;;;;;;28.75;14.47;;;;;;;7.97;100.00;100034.75;4432329;78;28498;-83
2021/10/27 19:03:23;;;;;;;28.27;14.18;;;;;;;8.16;100.00;100052.89;4423536;78;28495;-84
2021/10/27 19:15:35;;;;;;;33.70;17.32;;;;;;;7.95;100.00;100055.02;4424597;79;28604;-84
2021/10/27 19:21:36;;;;;;;30.72;15.78;;;;;;;7.95;100.00;100057.20;4392126;78;28550;-84
2021/10/27 19:27:49;;;;;;;30.02;14.78;;;;;;;7.85;100.00;100063.86;4368378;79;28502;-87
2021/10/27 20:55:26;;;;;;;38.38;16.73;;;;;;;6.65;100.00;100089.53;4440792;79;28517;-83
2021/10/27 21:01:31;;;;;;;31.48;15.10;;;;;;;6.58;100.00;100091.78;4428078;79;28457;-84
2021/10/27 21:13:50;;;;;;;42.10;21.73;;;;;;;6.41;100.00;100102.08;4412639;79;28440;-84
2021/10/27 21:19:53;;;;;;;40.45;19.87;;;;;;;6.27;100.00;100107.67;4415745;79;28556;-86
2021/10/27 21:25:55;;;;;;;34.48;17.17;;;;;;;6.32;100.00;100114.31;4450759;79;28499;-82
2021/10/27 21:44:17;;;;;;;38.08;19.17;;;;;;;6.18;100.00;100101.20;4365651;80;28514;-83
2021/10/27 21:50:19;;;;;;;38.15;20.15;;;;;;;6.06;100.00;100099.45;4363834;79;28461;-83
2021/10/27 21:56:25;;;;;;;42.25;20.77;;;;;;;5.82;100.00;100101.19;4380445;79;28499;-84
2021/10/27 22:02:24;;;;;;;37.55;18.23;;;;;;;5.82;100.00;100102.03;4357044;80;28551;-82
2021/10/27 22:08:26;;;;;;;37.95;19.27;;;;;;;5.71;100.00;100101.08;4380082;79;28526;-83
2021/10/27 22:14:28;;;;;;;37.42;19.48;;;;;;;5.67;100.00;100087.25;4370399;79;28491;-85
2021/10/27 22:20:30;;;;;;;38.13;19.80;;;;;;;5.64;100.00;100088.09;4371854;79;28466;-86
2021/10/27 22:26:32;;;;;;;38.83;21.00;;;;;;;5.58;100.00;100098.95;4414311;79;28531;-82
2021/10/27 22:32:33;;;;;;;38.55;19.12;;;;;;;5.32;100.00;100096.05;4400415;79;28474;-82
2021/10/27 22:38:35;;;;;;;35.17;18.10;;;;;;;5.39;100.00;100090.86;4410686;79;28533;-83
2021/10/27 22:44:37;;;;;;;35.68;18.02;;;;;;;5.18;100.00;100083.39;4363295;79;28517;-83
2021/10/27 22:50:40;;;;;;;37.38;20.12;;;;;;;5.24;100.00;100077.39;4336097;80;28445;-83
2021/10/27 22:56:42;;;;;;;40.23;20.45;;;;;;;5.09;100.00;100071.92;4360443;79;28493;-82
2021/10/27 23:15:43;;;;;;;37.20;19.20;;;;;;;4.86;100.00;100071.30;4436351;79;28459;-83
2021/10/27 23:39:59;;;;;;;39.40;21.00;;;;;;;4.81;100.00;100071.80;4341477;80;28472;-83
2021/10/27 23:40:22;;;;;;;39.90;19.87;;;;;;;4.49;100.00;100057.48;4328818;81;28447;-84
2021/10/27 23:46:15;;;;;;;40.67;19.67;;;;;;;4.42;100.00;100052.48;4359553;80;28500;-82
2021/10/27 23:52:21;;;;;;;40.17;19.15;;;;;;;4.51;100.00;100051.98;4379935;79;28452;-82
